sensor_id;sensor_type;location;lat;lon;timestamp;temperature;humidity
5174;DHT22;2606;50.934;6.934;2022-07-23T00:00:05;20.20;99.90
5174;DHT22;2606;50.934;6.934;2022-07-23T00:02:31;20.20;99.90
5174;DHT22;2606;50.934;6.934;2022-07-23T00:04:56;20.10;99.90
5174;DHT22;2606;50.934;6.934;2022-07-23T00:07:22;20.00;99.90
5174;DHT22;2606;50.934;6.934;2022-07-23T00:09:47;20.00;99.90
5174;DHT22;2606;50.934;6.934;2022-07-23T00:12:13;19.90;99.90
5174;DHT22;2606;50.934;6.934;2022-07-23T00:14:38;19.90;99.90
5174;DHT22;2606;50.934;6.934;2022-07-23T00:17:04;19.80;99.90
5174;DHT22;2606;50.934;6.934;2022-07-23T00:19:30;19.80;99.90
5174;DHT22;2606;50.934;6.934;2022-07-23T00:21:55;19.80;99.90
5174;DHT22;2606;50.934;6.934;2022-07-23T00:24:21;19.70;99.90
5174;DHT22;2606;50.934;6.934;2022-07-23T00:26:46;19.70;99.90
5174;DHT22;2606;50.934;6.934;2022-07-23T00:29:12;19.70;99.90
5174;DHT22;2606;50.934;6.934;2022-07-23T00:31:38;19.70;99.90
5174;DHT22;2606;50.934;6.934;2022-07-23T00:34:03;19.70;99.90
5174;DHT22;2606;50.934;6.934;2022-07-23T00:36:29;19.50;99.90
5174;DHT22;2606;50.934;6.934;2022-07-23T00:38:56;19.50;99.90
5174;DHT22;2606;50.934;6.934;2022-07-23T00:41:22;19.40;99.90
5174;DHT22;2606;50.934;6.934;2022-07-23T00:43:48;19.40;99.90
5174;DHT22;2606;50.934;6.934;2022-07-23T00:46:19;19.30;99.90
5174;DHT22;2606;50.934;6.934;2022-07-23T00:48:45;19.20;99.90
5174;DHT22;2606;50.934;6.934;2022-07-23T00:51:11;19.10;99.90
5174;DHT22;2606;50.934;6.934;2022-07-23T00:53:36;19.10;99.90
5174;DHT22;2606;50.934;6.934;2022-07-23T00:56:02;19.10;99.90
5174;DHT22;2606;50.934;6.934;2022-07-23T00:58:27;19.00;99.90
5174;DHT22;2606;50.934;6.934;2022-07-23T01:00:53;19.00;99.90
5174;DHT22;2606;50.934;6.934;2022-07-23T01:03:19;19.00;99.90
5174;DHT22;2606;50.934;6.934;2022-07-23T01:05:45;18.90;99.90
5174;DHT22;2606;50.934;6.934;2022-07-23T01:08:10;18.90;99.90
5174;DHT22;2606;50.934;6.934;2022-07-23T01:10:36;18.90;99.90
5174;DHT22;2606;50.934;6.934;2022-07-23T01:13:07;18.80;99.90
5174;DHT22;2606;50.934;6.934;2022-07-23T01:15:35;18.80;99.90
5174;DHT22;2606;50.934;6.934;2022-07-23T01:18:03;18.70;99.90
5174;DHT22;2606;50.934;6.934;2022-07-23T01:20:29;18.70;99.90
5174;DHT22;2606;50.934;6.934;2022-07-23T01:22:55;18.70;99.90
5174;DHT22;2606;50.934;6.934;2022-07-23T01:25:21;18.80;99.90
5174;DHT22;2606;50.934;6.934;2022-07-23T01:27:48;18.80;99.90
5174;DHT22;2606;50.934;6.934;2022-07-23T01:30:13;18.80;99.90
5174;DHT22;2606;50.934;6.934;2022-07-23T01:32:39;18.90;99.90
5174;DHT22;2606;50.934;6.934;2022-07-23T01:35:06;18.80;99.90
5174;DHT22;2606;50.934;6.934;2022-07-23T01:37:32;18.80;99.90
5174;DHT22;2606;50.934;6.934;2022-07-23T01:39:57;18.80;99.90
5174;DHT22;2606;50.934;6.934;2022-07-23T01:42:23;18.80;99.90
5174;DHT22;2606;50.934;6.934;2022-07-23T01:44:49;18.80;99.90
5174;DHT22;2606;50.934;6.934;2022-07-23T01:47:15;18.70;99.90
5174;DHT22;2606;50.934;6.934;2022-07-23T01:49:41;18.70;99.90
5174;DHT22;2606;50.934;6.934;2022-07-23T01:52:07;18.70;99.90
5174;DHT22;2606;50.934;6.934;2022-07-23T01:54:37;18.60;99.90
5174;DHT22;2606;50.934;6.934;2022-07-23T01:57:03;18.60;99.90
5174;DHT22;2606;50.934;6.934;2022-07-23T01:59:29;18.60;99.90
5174;DHT22;2606;50.934;6.934;2022-07-23T02:01:55;18.60;99.90
5174;DHT22;2606;50.934;6.934;2022-07-23T02:04:21;18.60;99.90
5174;DHT22;2606;50.934;6.934;2022-07-23T02:06:47;18.50;99.90
5174;DHT22;2606;50.934;6.934;2022-07-23T02:09:13;18.50;99.90
5174;DHT22;2606;50.934;6.934;2022-07-23T02:11:39;18.40;99.90
5174;DHT22;2606;50.934;6.934;2022-07-23T02:14:05;18.40;99.90
5174;DHT22;2606;50.934;6.934;2022-07-23T02:16:31;18.40;99.90
5174;DHT22;2606;50.934;6.934;2022-07-23T02:18:56;18.30;99.90
5174;DHT22;2606;50.934;6.934;2022-07-23T02:21:22;18.30;99.90
5174;DHT22;2606;50.934;6.934;2022-07-23T02:23:48;18.30;99.90
5174;DHT22;2606;50.934;6.934;2022-07-23T02:26:13;18.30;99.90
5174;DHT22;2606;50.934;6.934;2022-07-23T02:28:39;18.30;99.90
5174;DHT22;2606;50.934;6.934;2022-07-23T02:31:04;18.30;99.90
5174;DHT22;2606;50.934;6.934;2022-07-23T02:33:32;18.30;99.90
5174;DHT22;2606;50.934;6.934;2022-07-23T02:35:57;18.30;99.90
5174;DHT22;2606;50.934;6.934;2022-07-23T02:38:23;18.30;99.90
5174;DHT22;2606;50.934;6.934;2022-07-23T02:40:48;18.20;99.90
5174;DHT22;2606;50.934;6.934;2022-07-23T02:43:14;18.20;99.90
5174;DHT22;2606;50.934;6.934;2022-07-23T02:45:39;18.20;99.90
5174;DHT22;2606;50.934;6.934;2022-07-23T02:48:05;18.20;99.90
5174;DHT22;2606;50.934;6.934;2022-07-23T02:50:31;18.20;99.90
5174;DHT22;2606;50.934;6.934;2022-07-23T02:52:57;18.20;99.90
5174;DHT22;2606;50.934;6.934;2022-07-23T02:55:22;18.20;99.90
5174;DHT22;2606;50.934;6.934;2022-07-23T02:57:48;18.10;99.90
5174;DHT22;2606;50.934;6.934;2022-07-23T03:00:13;18.10;99.90
5174;DHT22;2606;50.934;6.934;2022-07-23T03:02:39;18.10;99.90
5174;DHT22;2606;50.934;6.934;2022-07-23T03:05:05;18.10;99.90
5174;DHT22;2606;50.934;6.934;2022-07-23T03:07:31;18.10;99.90
5174;DHT22;2606;50.934;6.934;2022-07-23T03:09:56;18.00;99.90
5174;DHT22;2606;50.934;6.934;2022-07-23T03:12:22;18.00;99.90
5174;DHT22;2606;50.934;6.934;2022-07-23T03:14:48;18.00;99.90
5174;DHT22;2606;50.934;6.934;2022-07-23T03:17:14;18.00;99.90
5174;DHT22;2606;50.934;6.934;2022-07-23T03:19:39;17.90;99.90
5174;DHT22;2606;50.934;6.934;2022-07-23T03:22:06;17.90;99.90
5174;DHT22;2606;50.934;6.934;2022-07-23T03:24:31;17.80;99.90
5174;DHT22;2606;50.934;6.934;2022-07-23T03:27:15;17.90;99.90
5174;DHT22;2606;50.934;6.934;2022-07-23T03:29:41;17.70;99.90
5174;DHT22;2606;50.934;6.934;2022-07-23T03:32:07;17.70;99.90
5174;DHT22;2606;50.934;6.934;2022-07-23T03:34:32;17.70;99.90
5174;DHT22;2606;50.934;6.934;2022-07-23T03:36:58;17.70;99.90
5174;DHT22;2606;50.934;6.934;2022-07-23T03:39:24;17.60;99.90
5174;DHT22;2606;50.934;6.934;2022-07-23T03:41:49;17.60;99.90
5174;DHT22;2606;50.934;6.934;2022-07-23T03:44:15;17.60;99.90
5174;DHT22;2606;50.934;6.934;2022-07-23T03:46:41;17.60;99.90
5174;DHT22;2606;50.934;6.934;2022-07-23T03:49:06;17.50;99.90
5174;DHT22;2606;50.934;6.934;2022-07-23T03:51:32;17.50;99.90
5174;DHT22;2606;50.934;6.934;2022-07-23T03:53:57;17.50;99.90
5174;DHT22;2606;50.934;6.934;2022-07-23T03:56:23;17.50;99.90
5174;DHT22;2606;50.934;6.934;2022-07-23T03:58:49;17.40;99.90
5174;DHT22;2606;50.934;6.934;2022-07-23T04:01:15;17.40;99.90
5174;DHT22;2606;50.934;6.934;2022-07-23T04:03:40;17.40;99.90
5174;DHT22;2606;50.934;6.934;2022-07-23T04:06:06;17.40;99.90
5174;DHT22;2606;50.934;6.934;2022-07-23T04:08:32;17.40;99.90
5174;DHT22;2606;50.934;6.934;2022-07-23T04:10:58;17.30;99.90
5174;DHT22;2606;50.934;6.934;2022-07-23T04:13:23;17.40;99.90
5174;DHT22;2606;50.934;6.934;2022-07-23T04:15:49;17.40;99.90
5174;DHT22;2606;50.934;6.934;2022-07-23T04:18:16;17.30;99.90
5174;DHT22;2606;50.934;6.934;2022-07-23T04:20:47;17.30;99.90
5174;DHT22;2606;50.934;6.934;2022-07-23T04:23:13;17.30;99.90
5174;DHT22;2606;50.934;6.934;2022-07-23T04:25:38;17.30;99.90
5174;DHT22;2606;50.934;6.934;2022-07-23T04:28:04;17.30;99.90
5174;DHT22;2606;50.934;6.934;2022-07-23T04:30:30;17.20;99.90
5174;DHT22;2606;50.934;6.934;2022-07-23T04:32:55;17.20;99.90
5174;DHT22;2606;50.934;6.934;2022-07-23T04:35:21;17.20;99.90
5174;DHT22;2606;50.934;6.934;2022-07-23T04:37:47;17.20;99.90
5174;DHT22;2606;50.934;6.934;2022-07-23T04:40:13;17.20;99.90
5174;DHT22;2606;50.934;6.934;2022-07-23T04:42:39;17.20;99.90
5174;DHT22;2606;50.934;6.934;2022-07-23T04:45:05;17.20;99.90
5174;DHT22;2606;50.934;6.934;2022-07-23T04:47:31;17.20;99.90
5174;DHT22;2606;50.934;6.934;2022-07-23T04:49:57;17.20;99.90
5174;DHT22;2606;50.934;6.934;2022-07-23T04:52:23;17.20;99.90
5174;DHT22;2606;50.934;6.934;2022-07-23T04:54:49;17.20;99.90
5174;DHT22;2606;50.934;6.934;2022-07-23T04:57:15;17.20;99.90
5174;DHT22;2606;50.934;6.934;2022-07-23T04:59:40;17.20;99.90
5174;DHT22;2606;50.934;6.934;2022-07-23T05:02:06;17.20;99.90
5174;DHT22;2606;50.934;6.934;2022-07-23T05:04:32;17.20;99.90
5174;DHT22;2606;50.934;6.934;2022-07-23T05:06:57;17.20;99.90
5174;DHT22;2606;50.934;6.934;2022-07-23T05:09:23;17.20;99.90
5174;DHT22;2606;50.934;6.934;2022-07-23T05:11:49;17.20;99.90
5174;DHT22;2606;50.934;6.934;2022-07-23T05:14:15;17.20;99.90
5174;DHT22;2606;50.934;6.934;2022-07-23T05:16:40;17.20;99.90
5174;DHT22;2606;50.934;6.934;2022-07-23T05:19:06;17.30;99.90
5174;DHT22;2606;50.934;6.934;2022-07-23T05:21:32;17.40;99.90
5174;DHT22;2606;50.934;6.934;2022-07-23T05:23:57;17.40;99.90
5174;DHT22;2606;50.934;6.934;2022-07-23T05:26:23;17.40;99.90
5174;DHT22;2606;50.934;6.934;2022-07-23T05:28:48;17.40;99.90
5174;DHT22;2606;50.934;6.934;2022-07-23T05:31:14;17.50;99.90
5174;DHT22;2606;50.934;6.934;2022-07-23T05:33:39;17.50;99.90
5174;DHT22;2606;50.934;6.934;2022-07-23T05:36:05;17.50;99.90
5174;DHT22;2606;50.934;6.934;2022-07-23T05:38:32;17.60;99.90
5174;DHT22;2606;50.934;6.934;2022-07-23T05:40:58;17.60;99.90
5174;DHT22;2606;50.934;6.934;2022-07-23T05:43:24;17.60;99.90
5174;DHT22;2606;50.934;6.934;2022-07-23T05:45:49;17.70;99.90
5174;DHT22;2606;50.934;6.934;2022-07-23T05:48:15;17.70;99.90
5174;DHT22;2606;50.934;6.934;2022-07-23T05:50:41;17.80;99.90
5174;DHT22;2606;50.934;6.934;2022-07-23T05:53:07;17.80;99.90
5174;DHT22;2606;50.934;6.934;2022-07-23T05:55:32;17.80;99.90
5174;DHT22;2606;50.934;6.934;2022-07-23T05:57:59;17.80;99.90
5174;DHT22;2606;50.934;6.934;2022-07-23T06:00:25;17.90;99.90
5174;DHT22;2606;50.934;6.934;2022-07-23T06:02:51;17.90;99.90
5174;DHT22;2606;50.934;6.934;2022-07-23T06:05:17;17.90;99.90
5174;DHT22;2606;50.934;6.934;2022-07-23T06:07:43;18.00;99.90
5174;DHT22;2606;50.934;6.934;2022-07-23T06:10:09;18.00;99.90
5174;DHT22;2606;50.934;6.934;2022-07-23T06:12:35;18.10;99.90
5174;DHT22;2606;50.934;6.934;2022-07-23T06:15:00;18.20;99.90
5174;DHT22;2606;50.934;6.934;2022-07-23T06:17:27;18.20;99.90
5174;DHT22;2606;50.934;6.934;2022-07-23T06:19:53;18.30;99.90
5174;DHT22;2606;50.934;6.934;2022-07-23T06:22:19;18.30;99.90
5174;DHT22;2606;50.934;6.934;2022-07-23T06:24:44;18.40;99.90
5174;DHT22;2606;50.934;6.934;2022-07-23T06:27:10;18.40;99.90
5174;DHT22;2606;50.934;6.934;2022-07-23T06:29:36;18.50;99.90
5174;DHT22;2606;50.934;6.934;2022-07-23T06:32:01;18.50;99.90
5174;DHT22;2606;50.934;6.934;2022-07-23T06:34:27;18.60;99.90
5174;DHT22;2606;50.934;6.934;2022-07-23T06:36:53;18.70;99.90
5174;DHT22;2606;50.934;6.934;2022-07-23T06:39:18;18.70;99.90
5174;DHT22;2606;50.934;6.934;2022-07-23T06:41:44;18.70;99.90
5174;DHT22;2606;50.934;6.934;2022-07-23T06:44:09;18.80;99.90
5174;DHT22;2606;50.934;6.934;2022-07-23T06:46:35;18.90;99.90
5174;DHT22;2606;50.934;6.934;2022-07-23T06:49:01;19.10;99.90
5174;DHT22;2606;50.934;6.934;2022-07-23T06:51:26;19.20;99.90
5174;DHT22;2606;50.934;6.934;2022-07-23T06:53:52;19.20;99.90
5174;DHT22;2606;50.934;6.934;2022-07-23T06:56:17;19.30;99.90
5174;DHT22;2606;50.934;6.934;2022-07-23T06:58:43;19.30;99.90
5174;DHT22;2606;50.934;6.934;2022-07-23T07:01:09;19.40;99.90
5174;DHT22;2606;50.934;6.934;2022-07-23T07:03:34;19.40;99.90
5174;DHT22;2606;50.934;6.934;2022-07-23T07:06:00;19.50;99.90
5174;DHT22;2606;50.934;6.934;2022-07-23T07:08:25;19.50;99.90
5174;DHT22;2606;50.934;6.934;2022-07-23T07:10:51;19.60;99.90
5174;DHT22;2606;50.934;6.934;2022-07-23T07:13:17;19.70;99.90
5174;DHT22;2606;50.934;6.934;2022-07-23T07:15:42;19.70;99.90
5174;DHT22;2606;50.934;6.934;2022-07-23T07:18:08;19.70;99.90
5174;DHT22;2606;50.934;6.934;2022-07-23T07:20:33;19.80;99.90
5174;DHT22;2606;50.934;6.934;2022-07-23T07:22:59;19.80;99.90
5174;DHT22;2606;50.934;6.934;2022-07-23T07:25:25;19.90;99.90
5174;DHT22;2606;50.934;6.934;2022-07-23T07:27:50;19.90;99.90
5174;DHT22;2606;50.934;6.934;2022-07-23T07:30:16;20.00;99.90
5174;DHT22;2606;50.934;6.934;2022-07-23T07:32:42;20.00;99.90
5174;DHT22;2606;50.934;6.934;2022-07-23T07:35:08;20.10;99.90
5174;DHT22;2606;50.934;6.934;2022-07-23T07:37:34;20.10;99.90
5174;DHT22;2606;50.934;6.934;2022-07-23T07:40:00;20.10;99.90
5174;DHT22;2606;50.934;6.934;2022-07-23T07:42:26;20.10;99.90
5174;DHT22;2606;50.934;6.934;2022-07-23T07:44:51;20.10;99.90
5174;DHT22;2606;50.934;6.934;2022-07-23T07:47:17;20.10;99.90
5174;DHT22;2606;50.934;6.934;2022-07-23T07:49:43;20.10;99.90
5174;DHT22;2606;50.934;6.934;2022-07-23T07:52:09;20.20;99.90
5174;DHT22;2606;50.934;6.934;2022-07-23T07:54:35;20.20;99.90
5174;DHT22;2606;50.934;6.934;2022-07-23T07:57:01;20.30;99.90
5174;DHT22;2606;50.934;6.934;2022-07-23T07:59:26;20.30;99.90
5174;DHT22;2606;50.934;6.934;2022-07-23T08:01:52;20.40;99.90
5174;DHT22;2606;50.934;6.934;2022-07-23T08:04:18;20.50;99.90
5174;DHT22;2606;50.934;6.934;2022-07-23T08:06:45;20.50;99.90
5174;DHT22;2606;50.934;6.934;2022-07-23T08:09:10;20.60;99.90
5174;DHT22;2606;50.934;6.934;2022-07-23T08:11:36;20.70;99.90
5174;DHT22;2606;50.934;6.934;2022-07-23T08:14:02;20.80;99.90
5174;DHT22;2606;50.934;6.934;2022-07-23T08:16:27;20.90;99.90
5174;DHT22;2606;50.934;6.934;2022-07-23T08:18:53;21.00;99.90
5174;DHT22;2606;50.934;6.934;2022-07-23T08:21:19;21.20;99.90
5174;DHT22;2606;50.934;6.934;2022-07-23T08:23:44;21.20;99.90
5174;DHT22;2606;50.934;6.934;2022-07-23T08:26:10;21.30;99.90
5174;DHT22;2606;50.934;6.934;2022-07-23T08:28:36;21.20;99.90
5174;DHT22;2606;50.934;6.934;2022-07-23T08:31:01;21.30;99.90
5174;DHT22;2606;50.934;6.934;2022-07-23T08:33:27;21.30;99.90
5174;DHT22;2606;50.934;6.934;2022-07-23T08:35:53;21.40;99.90
5174;DHT22;2606;50.934;6.934;2022-07-23T08:38:20;21.50;99.90
5174;DHT22;2606;50.934;6.934;2022-07-23T08:40:48;21.60;99.90
5174;DHT22;2606;50.934;6.934;2022-07-23T08:43:26;21.60;99.90
5174;DHT22;2606;50.934;6.934;2022-07-23T08:45:55;21.70;99.90
5174;DHT22;2606;50.934;6.934;2022-07-23T08:48:30;21.60;99.90
5174;DHT22;2606;50.934;6.934;2022-07-23T08:50:58;21.50;99.90
5174;DHT22;2606;50.934;6.934;2022-07-23T08:53:25;21.60;99.90
5174;DHT22;2606;50.934;6.934;2022-07-23T08:55:53;21.70;99.90
5174;DHT22;2606;50.934;6.934;2022-07-23T08:58:19;21.70;99.90
5174;DHT22;2606;50.934;6.934;2022-07-23T09:00:46;21.80;99.90
5174;DHT22;2606;50.934;6.934;2022-07-23T09:03:20;21.70;99.90
5174;DHT22;2606;50.934;6.934;2022-07-23T09:05:47;21.70;99.90
5174;DHT22;2606;50.934;6.934;2022-07-23T09:08:15;21.80;99.90
5174;DHT22;2606;50.934;6.934;2022-07-23T09:10:59;21.90;99.90
5174;DHT22;2606;50.934;6.934;2022-07-23T09:16:27;22.10;99.90
5174;DHT22;2606;50.934;6.934;2022-07-23T09:18:59;22.10;99.90
5174;DHT22;2606;50.934;6.934;2022-07-23T09:21:28;22.10;99.90
5174;DHT22;2606;50.934;6.934;2022-07-23T09:23:59;22.10;99.90
5174;DHT22;2606;50.934;6.934;2022-07-23T09:26:41;22.10;99.90
5174;DHT22;2606;50.934;6.934;2022-07-23T09:34:32;22.30;99.90
5174;DHT22;2606;50.934;6.934;2022-07-23T09:37:13;22.40;99.90
5174;DHT22;2606;50.934;6.934;2022-07-23T09:39:39;22.60;99.60
5174;DHT22;2606;50.934;6.934;2022-07-23T09:42:22;22.70;99.10
5174;DHT22;2606;50.934;6.934;2022-07-23T09:44:50;22.90;99.30
5174;DHT22;2606;50.934;6.934;2022-07-23T09:47:16;23.10;98.80
5174;DHT22;2606;50.934;6.934;2022-07-23T09:49:58;23.20;98.60
5174;DHT22;2606;50.934;6.934;2022-07-23T09:52:30;23.20;98.70
5174;DHT22;2606;50.934;6.934;2022-07-23T09:55:04;23.30;98.10
5174;DHT22;2606;50.934;6.934;2022-07-23T09:57:31;23.50;98.90
5174;DHT22;2606;50.934;6.934;2022-07-23T10:00:02;24.00;98.50
5174;DHT22;2606;50.934;6.934;2022-07-23T10:02:32;24.40;96.30
5174;DHT22;2606;50.934;6.934;2022-07-23T10:04:59;24.70;95.90
5174;DHT22;2606;50.934;6.934;2022-07-23T10:07:26;24.90;95.60
5174;DHT22;2606;50.934;6.934;2022-07-23T10:09:55;25.10;94.90
5174;DHT22;2606;50.934;6.934;2022-07-23T10:12:22;25.40;93.10
5174;DHT22;2606;50.934;6.934;2022-07-23T10:14:50;25.60;93.10
5174;DHT22;2606;50.934;6.934;2022-07-23T10:17:17;25.90;93.10
5174;DHT22;2606;50.934;6.934;2022-07-23T10:19:43;26.20;92.50
5174;DHT22;2606;50.934;6.934;2022-07-23T10:22:15;26.40;90.70
5174;DHT22;2606;50.934;6.934;2022-07-23T10:30:43;27.00;90.50
5174;DHT22;2606;50.934;6.934;2022-07-23T10:33:38;27.20;89.00
5174;DHT22;2606;50.934;6.934;2022-07-23T10:38:52;27.60;85.80
5174;DHT22;2606;50.934;6.934;2022-07-23T10:41:35;27.60;85.30
5174;DHT22;2606;50.934;6.934;2022-07-23T10:44:14;27.50;84.00
5174;DHT22;2606;50.934;6.934;2022-07-23T10:46:59;27.30;85.40
5174;DHT22;2606;50.934;6.934;2022-07-23T10:49:30;27.30;83.20
5174;DHT22;2606;50.934;6.934;2022-07-23T10:54:43;27.70;80.80
5174;DHT22;2606;50.934;6.934;2022-07-23T10:57:13;27.90;80.20
5174;DHT22;2606;50.934;6.934;2022-07-23T11:02:28;28.60;77.80
5174;DHT22;2606;50.934;6.934;2022-07-23T11:04:59;28.60;76.50
5174;DHT22;2606;50.934;6.934;2022-07-23T11:07:25;28.60;75.50
5174;DHT22;2606;50.934;6.934;2022-07-23T11:09:51;28.70;74.90
5174;DHT22;2606;50.934;6.934;2022-07-23T11:20:21;29.70;67.50
5174;DHT22;2606;50.934;6.934;2022-07-23T11:22:54;29.80;67.00
5174;DHT22;2606;50.934;6.934;2022-07-23T11:27:49;30.20;64.30
5174;DHT22;2606;50.934;6.934;2022-07-23T11:35:41;30.40;63.00
5174;DHT22;2606;50.934;6.934;2022-07-23T11:40:37;30.60;62.70
5174;DHT22;2606;50.934;6.934;2022-07-23T11:43:08;30.80;61.40
5174;DHT22;2606;50.934;6.934;2022-07-23T11:45:37;30.90;60.30
5174;DHT22;2606;50.934;6.934;2022-07-23T11:48:05;31.00;59.10
5174;DHT22;2606;50.934;6.934;2022-07-23T11:50:31;30.90;58.30
5174;DHT22;2606;50.934;6.934;2022-07-23T11:52:57;31.30;57.60
5174;DHT22;2606;50.934;6.934;2022-07-23T11:55:24;31.70;56.30
5174;DHT22;2606;50.934;6.934;2022-07-23T11:57:52;32.20;55.70
5174;DHT22;2606;50.934;6.934;2022-07-23T12:00:21;32.60;54.00
5174;DHT22;2606;50.934;6.934;2022-07-23T12:02:50;32.20;54.40
5174;DHT22;2606;50.934;6.934;2022-07-23T12:05:24;32.00;54.20
5174;DHT22;2606;50.934;6.934;2022-07-23T12:07:52;31.90;54.30
5174;DHT22;2606;50.934;6.934;2022-07-23T12:10:25;31.90;54.50
5174;DHT22;2606;50.934;6.934;2022-07-23T12:12:54;32.10;54.50
5174;DHT22;2606;50.934;6.934;2022-07-23T12:15:23;32.30;52.40
5174;DHT22;2606;50.934;6.934;2022-07-23T12:17:49;32.30;50.60
5174;DHT22;2606;50.934;6.934;2022-07-23T12:20:18;32.00;50.60
5174;DHT22;2606;50.934;6.934;2022-07-23T12:22:47;31.80;50.80
5174;DHT22;2606;50.934;6.934;2022-07-23T12:25:17;31.90;51.50
5174;DHT22;2606;50.934;6.934;2022-07-23T12:27:44;31.90;50.70
5174;DHT22;2606;50.934;6.934;2022-07-23T12:32:47;32.30;49.80
5174;DHT22;2606;50.934;6.934;2022-07-23T12:35:13;32.20;48.40
5174;DHT22;2606;50.934;6.934;2022-07-23T12:37:41;32.50;48.20
5174;DHT22;2606;50.934;6.934;2022-07-23T12:42:47;33.00;46.60
5174;DHT22;2606;50.934;6.934;2022-07-23T12:45:13;33.10;46.40
5174;DHT22;2606;50.934;6.934;2022-07-23T12:50:36;33.20;44.80
5174;DHT22;2606;50.934;6.934;2022-07-23T12:53:14;33.20;46.20
5174;DHT22;2606;50.934;6.934;2022-07-23T12:55:40;33.10;47.40
5174;DHT22;2606;50.934;6.934;2022-07-23T12:58:20;33.00;47.90
5174;DHT22;2606;50.934;6.934;2022-07-23T13:01:03;32.70;46.50
5174;DHT22;2606;50.934;6.934;2022-07-23T13:06:01;32.90;46.90
5174;DHT22;2606;50.934;6.934;2022-07-23T13:08:28;32.80;46.90
5174;DHT22;2606;50.934;6.934;2022-07-23T13:10:55;33.00;46.90
5174;DHT22;2606;50.934;6.934;2022-07-23T13:13:23;33.20;46.40
5174;DHT22;2606;50.934;6.934;2022-07-23T13:15:49;33.30;45.60
5174;DHT22;2606;50.934;6.934;2022-07-23T13:18:15;33.00;46.30
5174;DHT22;2606;50.934;6.934;2022-07-23T13:20:43;33.00;47.50
5174;DHT22;2606;50.934;6.934;2022-07-23T13:23:08;33.00;47.10
5174;DHT22;2606;50.934;6.934;2022-07-23T13:25:34;32.90;46.80
5174;DHT22;2606;50.934;6.934;2022-07-23T13:28:00;32.80;46.50
5174;DHT22;2606;50.934;6.934;2022-07-23T13:30:26;32.90;46.70
5174;DHT22;2606;50.934;6.934;2022-07-23T13:32:52;33.20;46.60
5174;DHT22;2606;50.934;6.934;2022-07-23T13:35:18;33.30;46.80
5174;DHT22;2606;50.934;6.934;2022-07-23T13:37:44;33.40;46.10
5174;DHT22;2606;50.934;6.934;2022-07-23T13:40:10;33.30;45.90
5174;DHT22;2606;50.934;6.934;2022-07-23T13:42:36;33.10;45.80
5174;DHT22;2606;50.934;6.934;2022-07-23T13:45:03;32.80;46.00
5174;DHT22;2606;50.934;6.934;2022-07-23T13:47:28;32.70;46.10
5174;DHT22;2606;50.934;6.934;2022-07-23T13:49:54;33.20;45.80
5174;DHT22;2606;50.934;6.934;2022-07-23T13:52:19;33.20;45.30
5174;DHT22;2606;50.934;6.934;2022-07-23T13:54:45;33.40;45.00
5174;DHT22;2606;50.934;6.934;2022-07-23T13:57:11;33.70;44.50
5174;DHT22;2606;50.934;6.934;2022-07-23T13:59:36;33.80;44.40
5174;DHT22;2606;50.934;6.934;2022-07-23T14:02:03;33.70;43.80
5174;DHT22;2606;50.934;6.934;2022-07-23T14:04:29;33.90;43.90
5174;DHT22;2606;50.934;6.934;2022-07-23T14:06:55;33.90;43.70
5174;DHT22;2606;50.934;6.934;2022-07-23T14:09:21;33.90;43.60
5174;DHT22;2606;50.934;6.934;2022-07-23T14:11:47;33.60;43.50
5174;DHT22;2606;50.934;6.934;2022-07-23T14:14:13;33.30;43.40
5174;DHT22;2606;50.934;6.934;2022-07-23T14:16:39;33.10;43.90
5174;DHT22;2606;50.934;6.934;2022-07-23T14:19:04;33.20;43.90
5174;DHT22;2606;50.934;6.934;2022-07-23T14:21:30;33.40;44.10
5174;DHT22;2606;50.934;6.934;2022-07-23T14:23:55;33.70;43.00
5174;DHT22;2606;50.934;6.934;2022-07-23T14:26:21;34.00;42.60
5174;DHT22;2606;50.934;6.934;2022-07-23T14:28:47;33.90;43.20
5174;DHT22;2606;50.934;6.934;2022-07-23T14:31:12;33.70;43.10
5174;DHT22;2606;50.934;6.934;2022-07-23T14:33:38;33.50;43.00
5174;DHT22;2606;50.934;6.934;2022-07-23T14:36:03;33.60;43.10
5174;DHT22;2606;50.934;6.934;2022-07-23T14:38:29;33.40;42.00
5174;DHT22;2606;50.934;6.934;2022-07-23T14:40:56;33.40;42.50
5174;DHT22;2606;50.934;6.934;2022-07-23T14:43:22;33.50;42.50
5174;DHT22;2606;50.934;6.934;2022-07-23T14:45:47;33.40;42.30
5174;DHT22;2606;50.934;6.934;2022-07-23T14:48:13;33.50;42.80
5174;DHT22;2606;50.934;6.934;2022-07-23T14:50:39;33.10;43.00
5174;DHT22;2606;50.934;6.934;2022-07-23T14:53:05;33.00;43.70
5174;DHT22;2606;50.934;6.934;2022-07-23T14:55:32;33.30;43.30
5174;DHT22;2606;50.934;6.934;2022-07-23T14:57:58;33.20;43.40
5174;DHT22;2606;50.934;6.934;2022-07-23T15:00:24;33.40;43.00
5174;DHT22;2606;50.934;6.934;2022-07-23T15:02:51;33.60;42.80
5174;DHT22;2606;50.934;6.934;2022-07-23T15:05:16;33.60;42.70
5174;DHT22;2606;50.934;6.934;2022-07-23T15:07:42;33.60;42.90
5174;DHT22;2606;50.934;6.934;2022-07-23T15:10:08;33.50;42.80
5174;DHT22;2606;50.934;6.934;2022-07-23T15:12:33;33.90;42.90
5174;DHT22;2606;50.934;6.934;2022-07-23T15:14:59;34.10;42.10
5174;DHT22;2606;50.934;6.934;2022-07-23T15:17:24;34.20;41.50
5174;DHT22;2606;50.934;6.934;2022-07-23T15:19:50;34.40;41.10
5174;DHT22;2606;50.934;6.934;2022-07-23T15:22:16;34.50;40.70
5174;DHT22;2606;50.934;6.934;2022-07-23T15:24:42;34.20;40.60
5174;DHT22;2606;50.934;6.934;2022-07-23T15:27:08;34.20;41.30
5174;DHT22;2606;50.934;6.934;2022-07-23T15:29:33;34.20;41.10
5174;DHT22;2606;50.934;6.934;2022-07-23T15:31:59;34.20;40.80
5174;DHT22;2606;50.934;6.934;2022-07-23T15:34:26;34.00;41.20
5174;DHT22;2606;50.934;6.934;2022-07-23T15:36:52;33.90;41.30
5174;DHT22;2606;50.934;6.934;2022-07-23T15:39:20;33.90;41.40
5174;DHT22;2606;50.934;6.934;2022-07-23T15:41:45;33.70;41.80
5174;DHT22;2606;50.934;6.934;2022-07-23T15:44:11;33.80;41.60
5174;DHT22;2606;50.934;6.934;2022-07-23T15:46:37;33.70;41.60
5174;DHT22;2606;50.934;6.934;2022-07-23T15:49:02;33.70;41.70
5174;DHT22;2606;50.934;6.934;2022-07-23T15:51:28;33.80;42.10
5174;DHT22;2606;50.934;6.934;2022-07-23T15:53:54;33.80;41.80
5174;DHT22;2606;50.934;6.934;2022-07-23T15:56:20;33.80;41.70
5174;DHT22;2606;50.934;6.934;2022-07-23T15:58:46;33.70;41.40
5174;DHT22;2606;50.934;6.934;2022-07-23T16:01:12;33.40;41.80
5174;DHT22;2606;50.934;6.934;2022-07-23T16:03:38;33.20;42.10
5174;DHT22;2606;50.934;6.934;2022-07-23T16:06:05;33.20;42.30
5174;DHT22;2606;50.934;6.934;2022-07-23T16:08:31;33.30;42.20
5174;DHT22;2606;50.934;6.934;2022-07-23T16:10:57;33.50;42.10
5174;DHT22;2606;50.934;6.934;2022-07-23T16:13:24;33.70;41.90
5174;DHT22;2606;50.934;6.934;2022-07-23T16:15:50;33.60;41.40
5174;DHT22;2606;50.934;6.934;2022-07-23T16:18:16;33.70;41.00
5174;DHT22;2606;50.934;6.934;2022-07-23T16:20:42;33.70;40.80
5174;DHT22;2606;50.934;6.934;2022-07-23T16:23:08;33.60;41.20
5174;DHT22;2606;50.934;6.934;2022-07-23T16:25:35;33.40;41.10
5174;DHT22;2606;50.934;6.934;2022-07-23T16:28:01;33.40;41.30
5174;DHT22;2606;50.934;6.934;2022-07-23T16:30:26;33.40;42.00
5174;DHT22;2606;50.934;6.934;2022-07-23T16:32:52;33.30;41.90
5174;DHT22;2606;50.934;6.934;2022-07-23T16:35:18;33.30;41.70
5174;DHT22;2606;50.934;6.934;2022-07-23T16:37:43;33.20;41.20
5174;DHT22;2606;50.934;6.934;2022-07-23T16:40:10;33.00;41.60
5174;DHT22;2606;50.934;6.934;2022-07-23T16:42:36;32.80;42.00
5174;DHT22;2606;50.934;6.934;2022-07-23T16:45:04;32.80;42.50
5174;DHT22;2606;50.934;6.934;2022-07-23T16:47:30;32.60;42.50
5174;DHT22;2606;50.934;6.934;2022-07-23T16:49:56;32.60;42.60